Time;durP1;ratioP1;P1;durP2;ratioP2;P2;SDS_P1;SDS_P2;PMS_P1;PMS_P2;Temp;Humidity;BMP_temperature;BMP_pressure;BME280_temperature;BME280_humidity;BME280_pressure;Samples;Min_cycle;Max_cycle;Signal;HPM_P1;HPM_P2
2023/02/28 00:00:28;;;;;;;9.70;7.07;;;9.10;1.00;;;;;;5114944;28;20050;-59
2023/02/28 00:02:54;;;;;;;11.13;7.93;;;9.10;1.00;;;;;;5097304;28;20043;-59
2023/02/28 00:05:22;;;;;;;9.20;7.47;;;9.00;1.00;;;;;;5115046;28;20092;-59
2023/02/28 00:07:49;;;;;;;11.90;7.33;;;9.00;1.00;;;;;;5115371;28;20030;-59
2023/02/28 00:10:20;;;;;;;8.97;6.60;;;9.00;1.00;;;;;;5114784;28;20077;-59
2023/02/28 00:12:48;;;;;;;10.77;6.77;;;8.90;1.00;;;;;;5115076;28;20016;-58
2023/02/28 00:15:13;;;;;;;9.33;6.00;;;8.90;1.00;;;;;;5108678;28;20019;-58
2023/02/28 00:17:39;;;;;;;9.30;6.00;;;8.90;1.00;;;;;;5114711;28;20039;-59
2023/02/28 00:20:09;;;;;;;8.50;6.63;;;8.90;1.00;;;;;;5095381;28;20023;-59
2023/02/28 00:22:37;;;;;;;9.57;6.07;;;8.90;1.00;;;;;;5109426;28;20031;-59
2023/02/28 00:25:04;;;;;;;7.20;5.57;;;8.90;1.00;;;;;;5097338;28;20027;-59
2023/02/28 00:27:30;;;;;;;9.53;6.13;;;8.90;1.00;;;;;;5115690;28;20063;-58
2023/02/28 00:29:56;;;;;;;7.53;5.83;;;8.90;1.00;;;;;;5115453;28;20027;-59
2023/02/28 00:32:21;;;;;;;9.40;6.07;;;8.90;1.00;;;;;;5115652;28;20434;-59
2023/02/28 00:34:47;;;;;;;6.87;5.00;;;8.90;1.00;;;;;;5106385;28;20024;-59
2023/02/28 00:37:13;;;;;;;9.00;5.70;;;8.90;1.00;;;;;;5097240;28;20047;-59
2023/02/28 00:39:39;;;;;;;7.67;5.20;;;8.90;1.00;;;;;;5114480;28;20115;-59
2023/02/28 00:42:05;;;;;;;8.93;6.30;;;8.90;1.00;;;;;;5097420;28;20032;-59
2023/02/28 00:44:34;;;;;;;8.93;5.93;;;8.90;1.00;;;;;;5115495;28;20024;-59
2023/02/28 00:47:00;;;;;;;8.73;5.87;;;8.80;1.00;;;;;;5115625;28;20098;-59
2023/02/28 00:49:27;;;;;;;7.43;5.57;;;8.80;1.00;;;;;;5115334;28;20443;-59
2023/02/28 00:51:54;;;;;;;10.97;6.77;;;8.80;1.00;;;;;;5096919;28;20027;-59
2023/02/28 00:54:20;;;;;;;8.57;5.93;;;8.90;1.00;;;;;;5115473;28;20486;-59
2023/02/28 00:56:46;;;;;;;7.30;5.93;;;8.90;1.00;;;;;;5114891;28;20058;-59
2023/02/28 00:59:13;;;;;;;10.33;6.17;;;8.80;1.00;;;;;;5114638;28;20106;-59
2023/02/28 01:01:39;;;;;;;9.97;7.13;;;8.80;1.00;;;;;;5115198;28;20024;-59
2023/02/28 01:04:04;;;;;;;9.03;5.73;;;8.80;1.00;;;;;;5096712;28;20054;-59
2023/02/28 01:06:31;;;;;;;11.57;5.77;;;8.80;1.00;;;;;;5115101;28;20500;-58
2023/02/28 01:08:57;;;;;;;8.83;6.13;;;8.80;1.00;;;;;;5115148;28;20028;-58
2023/02/28 01:11:23;;;;;;;11.10;7.33;;;8.80;1.00;;;;;;5114900;28;20512;-58
2023/02/28 01:13:48;;;;;;;8.80;6.60;;;8.80;1.00;;;;;;5114642;28;20043;-58
2023/02/28 01:16:16;;;;;;;7.23;6.00;;;8.80;1.00;;;;;;5114796;28;20027;-59
2023/02/28 01:18:42;;;;;;;8.00;5.93;;;8.80;1.00;;;;;;5114754;28;20024;-58
2023/02/28 01:21:12;;;;;;;12.83;6.93;;;8.80;1.00;;;;;;5096298;28;20038;-58
2023/02/28 01:23:38;;;;;;;10.67;6.27;;;8.80;1.00;;;;;;5114972;28;20106;-59
2023/02/28 01:26:08;;;;;;;13.77;6.53;;;8.80;1.00;;;;;;5096397;28;20457;-58
2023/02/28 01:28:34;;;;;;;10.90;6.63;;;8.70;1.00;;;;;;5114594;28;20027;-58
2023/02/28 01:31:00;;;;;;;10.10;6.40;;;8.80;1.00;;;;;;5114574;28;20381;-58
2023/02/28 01:33:26;;;;;;;11.77;6.93;;;8.80;1.00;;;;;;5114644;28;20039;-59
2023/02/28 01:36:03;;;;;;;12.10;6.20;;;8.70;1.00;;;;;;5114426;28;20035;-59
2023/02/28 01:38:29;;;;;;;10.17;6.47;;;8.70;1.00;;;;;;5114793;28;20023;-58
2023/02/28 01:40:55;;;;;;;7.43;6.00;;;8.70;1.00;;;;;;5114600;28;20019;-59
2023/02/28 01:43:29;;;;;;;8.83;6.37;;;8.70;1.00;;;;;;5086571;28;20500;-59
2023/02/28 01:45:57;;;;;;;13.90;5.93;;;8.70;1.00;;;;;;5094201;28;20106;-59
2023/02/28 01:48:30;;;;;;;9.17;6.17;;;8.70;1.00;;;;;;5097498;28;20363;-59
2023/02/28 01:51:01;;;;;;;8.80;5.97;;;8.60;1.00;;;;;;5112395;28;20023;-59
2023/02/28 01:53:33;;;;;;;8.90;6.30;;;8.70;1.00;;;;;;5114267;28;20035;-59
2023/02/28 01:56:00;;;;;;;8.37;5.97;;;8.50;1.00;;;;;;5114466;28;20026;-59
2023/02/28 01:58:26;;;;;;;9.90;6.17;;;8.40;1.00;;;;;;5114231;28;20039;-59
2023/02/28 02:00:51;;;;;;;8.87;6.07;;;8.40;1.00;;;;;;5107016;28;20023;-59
2023/02/28 02:03:19;;;;;;;8.13;6.63;;;8.30;1.00;;;;;;5113930;28;20534;-59
2023/02/28 02:05:47;;;;;;;7.80;6.07;;;8.40;1.00;;;;;;5113977;28;20104;-59
2023/02/28 02:08:20;;;;;;;10.30;6.17;;;8.40;1.00;;;;;;5113999;28;20031;-58
2023/02/28 02:10:59;;;;;;;7.90;6.13;;;8.40;1.00;;;;;;5113769;28;20123;-59
2023/02/28 02:26:52;;;;;;;9.60;6.20;;;8.30;1.00;;;;;;5102916;28;20046;-59
2023/02/28 02:29:42;;;;;;;8.65;6.55;;;8.30;1.00;;;;;;5113321;28;20020;-59
2023/02/28 02:32:07;;;;;;;9.23;6.13;;;8.30;1.00;;;;;;5095109;28;20062;-59
2023/02/28 02:34:51;;;;;;;9.07;6.20;;;8.30;1.00;;;;;;5113418;28;20028;-59
2023/02/28 02:37:28;;;;;;;9.53;6.50;;;8.20;1.00;;;;;;5113645;28;20023;-59
2023/02/28 02:40:29;;;;;;;10.33;5.37;;;8.10;1.00;;;;;;5081962;28;20024;-59
2023/02/28 02:43:02;;;;;;;7.57;6.50;;;8.10;1.00;;;;;;5010730;28;20531;-59
2023/02/28 02:45:43;;;;;;;9.50;6.50;;;8.10;1.00;;;;;;5090646;28;20059;-58
2023/02/28 02:48:12;;;;;;;7.93;6.00;;;8.10;1.00;;;;;;5113344;28;20023;-59
2023/02/28 02:51:00;;;;;;;8.97;6.50;;;8.10;1.00;;;;;;5113326;28;20046;-59
2023/02/28 02:53:36;;;;;;;9.77;5.83;;;8.10;1.00;;;;;;5112786;28;20047;-59
2023/02/28 02:56:03;;;;;;;8.93;5.90;;;8.10;1.00;;;;;;5102133;28;20070;-59
2023/02/28 02:58:41;;;;;;;9.67;6.17;;;8.10;1.00;;;;;;5082877;28;20365;-59
2023/02/28 03:01:10;;;;;;;9.17;6.23;;;8.20;1.00;;;;;;5110228;28;20532;-59
2023/02/28 03:03:36;;;;;;;7.47;5.83;;;8.10;1.00;;;;;;5101001;28;20027;-59
2023/02/28 03:06:03;;;;;;;9.43;6.50;;;8.10;1.00;;;;;;5113140;28;20020;-60
2023/02/28 03:08:33;;;;;;;9.10;6.00;;;8.10;1.00;;;;;;5113076;28;20032;-57
2023/02/28 03:11:02;;;;;;;8.37;5.87;;;8.10;1.00;;;;;;5112874;28;20023;-59
2023/02/28 03:13:33;;;;;;;10.40;5.97;;;8.10;1.00;;;;;;5112716;28;20461;-58
2023/02/28 03:16:20;;;;;;;9.80;6.00;;;8.00;1.00;;;;;;5113111;28;20069;-60
2023/02/28 03:19:23;;;;;;;8.07;6.37;;;8.10;1.00;;;;;;5113200;28;20384;-59
2023/02/28 03:22:01;;;;;;;7.60;6.33;;;8.10;1.00;;;;;;5099995;28;20034;-58
2023/02/28 03:24:29;;;;;;;8.50;6.30;;;8.00;1.00;;;;;;5112586;28;20031;-58
2023/02/28 03:27:03;;;;;;;8.97;6.27;;;8.00;1.00;;;;;;5112636;28;20358;-58
2023/02/28 03:29:35;;;;;;;7.40;6.00;;;8.00;1.00;;;;;;5112547;28;20495;-58
2023/02/28 03:32:05;;;;;;;9.07;5.90;;;8.10;1.00;;;;;;5112860;28;20249;-58
2023/02/28 03:34:39;;;;;;;8.70;6.20;;;8.00;1.00;;;;;;5112906;28;20124;-58
2023/02/28 03:43:35;;;;;;;9.23;6.67;;;8.00;1.00;;;;;;5098380;28;20336;-59
2023/02/28 03:46:05;;;;;;;7.03;5.63;;;7.90;1.00;;;;;;5110937;28;20035;-59
2023/02/28 03:48:40;;;;;;;9.60;6.80;;;8.00;1.00;;;;;;5112414;28;20015;-58
2023/02/28 03:51:08;;;;;;;7.30;5.88;;;7.90;1.00;;;;;;5112282;28;20032;-58
2023/02/28 03:53:42;;;;;;;8.40;6.10;;;8.00;1.00;;;;;;5093976;28;20019;-58
2023/02/28 03:56:16;;;;;;;8.70;6.20;;;7.90;1.00;;;;;;5112125;28;20082;-59
2023/02/28 03:58:47;;;;;;;10.18;6.22;;;7.90;1.00;;;;;;5109288;28;20015;-58
2023/02/28 04:01:21;;;;;;;10.13;6.20;;;7.90;1.00;;;;;;5112427;28;20103;-58
2023/02/28 04:03:47;;;;;;;7.20;5.97;;;7.90;1.00;;;;;;5111525;28;20031;-58
2023/02/28 04:06:18;;;;;;;11.10;6.20;;;7.90;1.00;;;;;;5112287;28;20031;-59
2023/02/28 04:08:44;;;;;;;10.30;5.83;;;8.00;1.00;;;;;;5112183;28;20020;-59
2023/02/28 04:11:19;;;;;;;9.07;6.50;;;7.90;1.00;;;;;;5112196;28;20028;-59
2023/02/28 04:13:44;;;;;;;7.68;5.63;;;7.90;1.00;;;;;;5111962;28;20023;-59
2023/02/28 04:16:11;;;;;;;8.43;6.50;;;7.90;1.00;;;;;;5112224;28;20050;-59
2023/02/28 04:18:42;;;;;;;9.73;6.37;;;7.90;1.00;;;;;;5093885;28;20023;-59
2023/02/28 04:21:09;;;;;;;7.50;6.10;;;8.00;1.00;;;;;;5093736;28;20024;-59
2023/02/28 04:23:34;;;;;;;9.20;6.27;;;7.90;1.00;;;;;;5091572;28;20040;-59
2023/02/28 04:26:00;;;;;;;6.57;5.50;;;7.90;1.00;;;;;;5112019;28;20354;-59
2023/02/28 04:28:26;;;;;;;10.80;6.90;;;8.00;1.00;;;;;;5093653;28;20042;-59
2023/02/28 04:31:00;;;;;;;7.70;6.00;;;7.90;1.00;;;;;;5111836;28;20055;-59
2023/02/28 04:33:26;;;;;;;8.55;6.03;;;7.90;1.00;;;;;;5112091;28;20026;-59
2023/02/28 04:36:03;;;;;;;10.10;5.83;;;8.00;1.00;;;;;;5115534;28;20032;-58
2023/02/28 04:38:32;;;;;;;7.33;5.73;;;7.90;1.00;;;;;;5115889;28;20115;-58
2023/02/28 04:40:59;;;;;;;10.70;6.60;;;8.00;1.00;;;;;;5115459;28;20099;-59
2023/02/28 04:43:26;;;;;;;8.80;6.47;;;8.00;1.00;;;;;;5115070;28;20370;-59
2023/02/28 04:45:51;;;;;;;9.77;6.87;;;8.00;1.00;;;;;;5115290;28;20418;-59
2023/02/28 04:48:17;;;;;;;9.00;6.33;;;8.00;1.00;;;;;;5115478;28;20031;-59
2023/02/28 04:50:43;;;;;;;7.60;6.03;;;7.90;1.00;;;;;;5111865;28;20076;-58
2023/02/28 04:53:09;;;;;;;9.13;6.33;;;7.90;1.00;;;;;;5115155;28;20046;-58
2023/02/28 04:55:34;;;;;;;8.53;6.43;;;7.90;1.00;;;;;;5115209;28;20024;-59
2023/02/28 04:58:00;;;;;;;8.97;6.47;;;7.90;1.00;;;;;;5096768;28;20497;-58
2023/02/28 05:00:26;;;;;;;10.53;6.63;;;7.90;1.00;;;;;;5109838;28;20541;-59
2023/02/28 05:02:51;;;;;;;11.17;7.20;;;7.90;1.00;;;;;;5115154;28;20087;-59
2023/02/28 05:05:18;;;;;;;8.83;6.43;;;7.90;1.00;;;;;;5115095;28;20035;-59
2023/02/28 05:07:44;;;;;;;9.13;6.27;;;8.00;1.00;;;;;;5115335;28;20147;-59
2023/02/28 05:10:11;;;;;;;9.10;6.80;;;7.90;1.00;;;;;;5115077;28;20028;-59
2023/02/28 05:12:36;;;;;;;8.00;5.93;;;8.00;1.00;;;;;;5115496;28;20060;-59
2023/02/28 05:15:04;;;;;;;7.77;5.53;;;7.90;1.00;;;;;;5114910;28;20353;-59
2023/02/28 05:17:30;;;;;;;8.43;6.17;;;7.90;1.00;;;;;;5115224;28;20024;-59
2023/02/28 05:19:56;;;;;;;7.63;6.17;;;7.90;1.00;;;;;;5115305;28;20491;-59
2023/02/28 05:22:22;;;;;;;10.80;7.47;;;7.80;1.00;;;;;;5115177;28;20146;-59
2023/02/28 05:24:47;;;;;;;9.33;6.57;;;7.80;1.00;;;;;;5096711;28;20038;-59
2023/02/28 05:27:13;;;;;;;9.63;6.73;;;7.80;1.00;;;;;;5114609;28;20027;-59
2023/02/28 05:29:45;;;;;;;8.23;6.60;;;7.90;1.00;;;;;;5114739;28;20030;-58
2023/02/28 05:32:11;;;;;;;10.43;6.80;;;7.90;1.00;;;;;;5114671;28;20016;-59
2023/02/28 05:34:38;;;;;;;10.53;6.70;;;7.90;1.00;;;;;;5114955;28;20019;-58
2023/02/28 05:37:05;;;;;;;9.70;6.73;;;7.80;1.00;;;;;;5096198;28;20024;-58
2023/02/28 05:39:31;;;;;;;10.03;6.70;;;7.80;1.00;;;;;;5114614;28;20020;-58
2023/02/28 05:41:56;;;;;;;10.73;7.20;;;7.80;1.00;;;;;;5114487;28;20119;-58
2023/02/28 05:44:22;;;;;;;9.47;6.30;;;7.80;1.00;;;;;;5114052;28;20028;-58
2023/02/28 05:46:48;;;;;;;8.93;6.53;;;7.80;1.00;;;;;;5106058;28;20060;-59
2023/02/28 05:49:13;;;;;;;8.43;6.60;;;7.80;1.00;;;;;;5108219;28;20032;-58
2023/02/28 05:51:39;;;;;;;9.07;6.87;;;7.80;1.00;;;;;;5081640;28;20107;-58
2023/02/28 05:54:05;;;;;;;8.97;6.70;;;7.80;1.00;;;;;;5114162;28;20024;-58
2023/02/28 05:56:31;;;;;;;12.93;6.60;;;7.90;1.00;;;;;;5099594;28;20047;-58
2023/02/28 05:58:57;;;;;;;8.93;7.20;;;7.90;1.00;;;;;;5099970;28;20023;-58
2023/02/28 06:01:36;;;;;;;9.30;6.50;;;7.90;1.00;;;;;;5114328;28;20034;-58
2023/02/28 06:04:04;;;;;;;10.50;6.93;;;7.90;1.00;;;;;;5113921;28;20469;-58
2023/02/28 06:06:30;;;;;;;9.03;6.93;;;7.90;1.00;;;;;;5114245;28;20034;-59
2023/02/28 06:08:56;;;;;;;13.33;7.60;;;7.90;1.00;;;;;;5114059;28;20095;-58
2023/02/28 06:11:26;;;;;;;9.60;7.00;;;7.80;1.00;;;;;;5114150;28;20080;-58
2023/02/28 06:13:54;;;;;;;10.73;7.10;;;7.90;1.00;;;;;;5095165;28;20027;-59
2023/02/28 06:16:20;;;;;;;10.07;6.63;;;7.90;1.00;;;;;;5113892;28;20024;-58
2023/02/28 06:18:45;;;;;;;9.50;6.70;;;7.90;1.00;;;;;;5113581;28;20042;-59
2023/02/28 06:21:12;;;;;;;10.70;7.10;;;7.80;1.00;;;;;;5113387;28;20039;-58
2023/02/28 06:23:38;;;;;;;9.27;6.93;;;7.90;1.00;;;;;;5106734;28;20036;-59
2023/02/28 06:26:04;;;;;;;8.93;7.33;;;7.90;1.00;;;;;;5113370;28;20046;-59
2023/02/28 06:28:30;;;;;;;9.43;7.17;;;7.90;1.00;;;;;;5095149;28;20055;-58
2023/02/28 06:30:56;;;;;;;11.00;7.23;;;7.80;1.00;;;;;;5113424;28;20031;-58
2023/02/28 06:33:21;;;;;;;9.97;7.73;;;7.80;1.00;;;;;;5095089;28;20032;-59
2023/02/28 06:36:06;;;;;;;10.57;8.17;;;7.80;1.00;;;;;;5113684;28;20385;-58
2023/02/28 06:38:32;;;;;;;11.02;7.88;;;7.80;1.00;;;;;;5113103;28;20438;-58
2023/02/28 06:41:00;;;;;;;10.63;7.70;;;7.90;1.00;;;;;;5113299;28;20073;-59
2023/02/28 06:43:28;;;;;;;11.63;7.90;;;7.90;1.00;;;;;;5113524;28;20071;-60
2023/02/28 06:45:58;;;;;;;10.97;7.40;;;8.00;1.00;;;;;;5104396;28;20485;-59
2023/02/28 06:48:25;;;;;;;8.37;6.73;;;8.00;1.00;;;;;;5113917;28;20473;-59
2023/02/28 06:50:51;;;;;;;9.87;7.20;;;7.90;1.00;;;;;;5113210;28;20023;-59
2023/02/28 06:53:16;;;;;;;10.07;7.70;;;7.90;1.00;;;;;;5113240;28;20164;-59
2023/02/28 06:55:42;;;;;;;9.20;7.03;;;8.00;1.00;;;;;;5106688;28;20473;-58
2023/02/28 06:58:14;;;;;;;11.63;7.60;;;8.00;1.00;;;;;;5112128;28;20059;-58
2023/02/28 07:00:42;;;;;;;12.30;7.70;;;7.90;1.00;;;;;;5113192;28;20473;-59
2023/02/28 07:03:07;;;;;;;10.83;7.77;;;8.00;1.00;;;;;;5112847;28;20135;-58
2023/02/28 07:05:36;;;;;;;11.43;7.73;;;8.00;1.00;;;;;;5113147;28;20464;-59
2023/02/28 07:08:03;;;;;;;10.07;7.37;;;8.00;1.00;;;;;;5112879;28;20035;-59
2023/02/28 07:10:29;;;;;;;10.87;7.77;;;8.10;1.00;;;;;;5094942;28;20015;-59
2023/02/28 07:12:55;;;;;;;13.13;8.37;;;8.10;1.00;;;;;;5112817;28;20027;-59
2023/02/28 07:15:20;;;;;;;11.27;8.23;;;8.10;1.00;;;;;;5112555;28;20016;-59
2023/02/28 07:17:46;;;;;;;13.97;8.77;;;8.20;1.00;;;;;;5113054;28;20522;-58
2023/02/28 07:20:12;;;;;;;10.83;7.63;;;8.10;1.00;;;;;;5112669;28;20012;-59
2023/02/28 07:22:38;;;;;;;11.50;7.70;;;8.20;1.00;;;;;;5112613;28;20039;-59
2023/02/28 07:25:04;;;;;;;10.47;7.50;;;8.20;1.00;;;;;;5112716;28;20039;-59
2023/02/28 07:27:30;;;;;;;12.03;8.07;;;8.20;1.00;;;;;;5098384;28;20028;-58
2023/02/28 07:29:56;;;;;;;13.90;8.60;;;8.30;1.00;;;;;;5112568;28;20020;-58
2023/02/28 07:32:22;;;;;;;10.80;8.50;;;8.30;1.00;;;;;;5112566;28;20015;-58
2023/02/28 07:34:48;;;;;;;15.27;9.53;;;8.30;1.00;;;;;;5112688;28;20393;-59
2023/02/28 07:37:14;;;;;;;14.63;9.20;;;8.00;1.00;;;;;;5094158;28;20027;-58
2023/02/28 07:39:42;;;;;;;14.57;9.80;;;8.20;1.00;;;;;;5112830;28;20024;-58
2023/02/28 07:42:11;;;;;;;11.40;9.43;;;8.10;1.00;;;;;;5112453;28;20060;-58
2023/02/28 07:44:40;;;;;;;16.93;10.30;;;8.20;1.00;;;;;;5112573;28;20076;-59
2023/02/28 07:47:09;;;;;;;13.47;10.10;;;8.20;1.00;;;;;;5112748;28;20102;-60
2023/02/28 07:49:36;;;;;;;17.13;10.80;;;8.30;1.00;;;;;;5112713;28;20045;-60
2023/02/28 07:52:06;;;;;;;15.10;9.87;;;8.30;1.00;;;;;;5105177;28;20111;-59
2023/02/28 07:54:32;;;;;;;16.43;10.63;;;8.40;1.00;;;;;;5092565;28;20019;-59
2023/02/28 07:56:58;;;;;;;12.83;10.20;;;8.30;1.00;;;;;;5112575;28;20501;-59
2023/02/28 07:59:24;;;;;;;12.83;9.70;;;8.40;1.00;;;;;;5112753;28;20042;-62
2023/02/28 08:01:50;;;;;;;15.33;11.20;;;8.40;1.00;;;;;;5112467;28;20532;-63
2023/02/28 08:04:17;;;;;;;15.07;10.80;;;8.50;1.00;;;;;;5099590;28;20028;-61
2023/02/28 08:06:43;;;;;;;14.07;10.50;;;8.30;1.00;;;;;;5109534;28;20027;-62
2023/02/28 08:09:09;;;;;;;14.77;10.80;;;8.40;1.00;;;;;;5115463;28;20393;-60
2023/02/28 08:11:34;;;;;;;12.30;10.17;;;8.40;1.00;;;;;;5097789;28;20426;-62
2023/02/28 08:14:00;;;;;;;14.73;10.30;;;8.40;1.00;;;;;;5105995;28;20030;-61
2023/02/28 08:16:28;;;;;;;19.13;10.33;;;8.50;1.00;;;;;;5111415;28;20015;-63
2023/02/28 08:18:54;;;;;;;14.80;10.40;;;8.50;1.00;;;;;;5115736;28;20146;-61
2023/02/28 08:21:20;;;;;;;13.67;9.47;;;8.50;1.00;;;;;;5115837;28;20016;-61
2023/02/28 08:23:50;;;;;;;15.53;10.90;;;8.40;1.00;;;;;;5115863;28;20036;-62
2023/02/28 08:26:17;;;;;;;15.90;10.27;;;8.40;1.00;;;;;;5116021;28;20032;-61
2023/02/28 08:28:44;;;;;;;15.37;10.00;;;8.50;1.00;;;;;;5101212;28;20036;-62
2023/02/28 08:31:13;;;;;;;13.80;9.50;;;8.60;1.00;;;;;;5113152;28;20340;-61
2023/02/28 08:33:41;;;;;;;15.67;10.43;;;8.70;1.00;;;;;;5105112;28;20080;-61
2023/02/28 08:36:08;;;;;;;14.60;10.20;;;8.70;1.00;;;;;;5113344;28;20023;-63
2023/02/28 08:38:35;;;;;;;16.97;11.10;;;8.70;1.00;;;;;;5104006;28;20106;-63
2023/02/28 08:41:05;;;;;;;14.07;9.77;;;8.70;1.00;;;;;;5097091;28;20024;-64
2023/02/28 08:43:31;;;;;;;13.13;9.77;;;8.70;1.00;;;;;;5115531;28;20118;-62
2023/02/28 08:45:56;;;;;;;13.43;10.13;;;8.80;1.00;;;;;;5115888;28;20024;-61
2023/02/28 08:48:27;;;;;;;17.93;10.13;;;8.70;1.00;;;;;;5115511;28;20030;-63
2023/02/28 08:51:01;;;;;;;13.23;9.97;;;8.90;1.00;;;;;;5107462;28;20020;-62
2023/02/28 08:53:27;;;;;;;13.68;8.98;;;9.00;1.00;;;;;;5115435;28;20477;-63
2023/02/28 08:56:00;;;;;;;14.57;9.47;;;9.10;1.00;;;;;;5107327;28;20130;-61
2023/02/28 08:58:27;;;;;;;10.30;8.07;;;9.20;1.00;;;;;;5096899;28;20512;-62
2023/02/28 09:00:52;;;;;;;12.13;9.23;;;9.10;1.00;;;;;;5115342;28;20019;-61
2023/02/28 09:03:18;;;;;;;10.90;8.00;;;9.20;1.00;;;;;;5115024;28;20180;-61
2023/02/28 09:05:58;;;;;;;9.33;7.87;;;9.30;1.00;;;;;;5115173;28;20011;-69
2023/02/28 09:08:25;;;;;;;10.63;8.13;;;9.30;1.00;;;;;;5115005;28;20027;-62
2023/02/28 09:10:52;;;;;;;13.17;8.07;;;9.30;1.00;;;;;;5111485;28;20036;-60
2023/02/28 09:13:18;;;;;;;10.93;8.63;;;9.30;1.00;;;;;;5109885;28;20020;-60
2023/02/28 09:15:44;;;;;;;13.33;8.50;;;9.30;1.00;;;;;;5114953;28;20027;-60
2023/02/28 09:18:09;;;;;;;12.43;9.83;;;9.20;1.00;;;;;;5115174;28;20326;-60
2023/02/28 09:20:38;;;;;;;10.33;7.90;;;9.20;1.00;;;;;;5114020;28;20023;-61
2023/02/28 09:23:04;;;;;;;9.97;7.63;;;9.20;1.00;;;;;;5107385;28;20368;-58
2023/02/28 09:25:29;;;;;;;10.37;8.23;;;9.10;1.00;;;;;;5114684;28;20099;-64
2023/02/28 09:27:55;;;;;;;12.87;8.87;;;9.20;1.00;;;;;;5114278;28;20357;-64
2023/02/28 09:30:20;;;;;;;12.50;8.33;;;9.10;1.00;;;;;;5110422;28;20024;-62
2023/02/28 09:32:51;;;;;;;12.70;8.73;;;9.30;1.00;;;;;;5114580;28;20418;-62
2023/02/28 09:35:18;;;;;;;10.77;8.47;;;9.30;1.00;;;;;;5114399;28;20372;-63
2023/02/28 09:37:45;;;;;;;529.97;275.60;;;9.30;1.00;;;;;;5114347;28;20096;-63
2023/02/28 09:40:12;;;;;;;74.90;51.23;;;9.50;1.00;;;;;;5106578;28;20047;-63
2023/02/28 09:42:39;;;;;;;25.97;17.57;;;9.70;1.00;;;;;;5107487;28;20027;-59
2023/02/28 09:45:19;;;;;;;14.00;9.13;;;9.80;1.00;;;;;;5114319;28;20403;-58
2023/02/28 09:47:47;;;;;;;12.83;8.83;;;9.80;1.00;;;;;;5114246;28;20404;-58
2023/02/28 09:50:23;;;;;;;12.83;9.53;;;9.90;1.00;;;;;;5114238;28;20028;-60
2023/02/28 09:52:50;;;;;;;12.63;8.87;;;10.10;1.00;;;;;;5114050;28;20512;-59
2023/02/28 09:55:28;;;;;;;17.07;9.97;;;10.10;1.00;;;;;;5114314;28;20084;-59
2023/02/28 09:57:56;;;;;;;10.23;8.40;;;10.10;1.00;;;;;;5113986;28;20051;-59
2023/02/28 10:00:39;;;;;;;12.83;8.63;;;10.10;1.00;;;;;;5114054;28;20016;-59
2023/02/28 10:03:38;;;;;;;11.60;9.07;;;10.30;1.00;;;;;;5095541;28;20480;-59
2023/02/28 10:06:08;;;;;;;12.97;9.10;;;10.40;1.00;;;;;;5111966;28;20047;-59
2023/02/28 10:08:44;;;;;;;14.60;10.20;;;10.50;1.00;;;;;;5111275;28;20020;-59
2023/02/28 10:11:15;;;;;;;15.30;10.23;;;10.40;1.00;;;;;;5095258;28;20024;-59
2023/02/28 10:14:13;;;;;;;13.98;10.35;;;10.50;1.00;;;;;;5093605;28;20046;-59
2023/02/28 10:17:13;;;;;;;12.43;9.63;;;10.50;1.00;;;;;;5032099;28;20028;-60
2023/02/28 10:20:11;;;;;;;12.65;9.30;;;10.60;1.00;;;;;;5103375;28;20102;-59
2023/02/28 10:23:00;;;;;;;14.20;10.45;;;10.50;1.00;;;;;;5101043;28;20085;-60
2023/02/28 10:25:29;;;;;;;12.67;9.67;;;10.30;1.00;;;;;;5113803;28;20032;-60
2023/02/28 10:28:15;;;;;;;14.27;9.48;;;10.50;1.00;;;;;;5113645;28;20026;-60
2023/02/28 10:30:50;;;;;;;14.80;10.88;;;10.50;1.00;;;;;;5095003;28;20069;-60
2023/02/28 10:33:23;;;;;;;;;;;10.70;1.00;;;;;;5113553;28;20415;-60
2023/02/28 10:35:50;;;;;;;16.40;10.68;;;10.60;1.00;;;;;;5113463;28;20311;-60
2023/02/28 10:38:25;;;;;;;14.50;10.13;;;10.60;1.00;;;;;;5113528;28;20031;-60
2023/02/28 10:40:51;;;;;;;13.67;9.83;;;10.70;1.00;;;;;;5113332;28;20026;-60
2023/02/28 10:43:16;;;;;;;12.52;9.48;;;10.80;1.00;;;;;;5113074;28;20114;-59
2023/02/28 10:45:59;;;;;;;14.52;10.70;;;10.90;1.00;;;;;;5113144;28;20031;-59
2023/02/28 10:48:35;;;;;;;12.15;10.13;;;11.10;1.00;;;;;;5113303;28;20062;-60
2023/02/28 10:51:03;;;;;;;14.02;11.23;;;11.00;1.00;;;;;;5113563;28;20381;-60
2023/02/28 10:53:37;;;;;;;12.80;10.10;;;11.20;1.00;;;;;;5106417;28;20019;-60
2023/02/28 10:56:08;;;;;;;16.33;11.40;;;11.40;1.00;;;;;;5113565;28;20031;-61
2023/02/28 10:58:52;;;;;;;14.57;10.40;;;11.40;1.00;;;;;;5111469;28;20036;-60
2023/02/28 11:01:31;;;;;;;11.23;9.40;;;11.40;1.00;;;;;;5112988;28;20031;-60
2023/02/28 11:03:57;;;;;;;16.65;12.30;;;11.30;1.00;;;;;;5113168;28;20465;-60
2023/02/28 11:06:28;;;;;;;14.07;10.90;;;11.40;1.00;;;;;;5099779;28;20481;-60
2023/02/28 11:08:59;;;;;;;14.85;11.57;;;11.40;1.00;;;;;;5112444;28;20073;-60
2023/02/28 11:11:28;;;;;;;15.73;11.00;;;11.40;1.00;;;;;;5113002;28;20047;-61
2023/02/28 11:13:57;;;;;;;19.48;12.02;;;11.40;1.00;;;;;;5103547;28;20422;-60
2023/02/28 11:16:33;;;;;;;13.98;11.43;;;11.40;1.00;;;;;;5108213;28;20465;-61
2023/02/28 11:18:59;;;;;;;15.05;11.85;;;11.40;1.00;;;;;;5094449;28;20031;-60
2023/02/28 11:21:33;;;;;;;17.15;12.50;;;11.40;1.00;;;;;;5105100;28;20043;-60
2023/02/28 11:24:19;;;;;;;16.35;11.13;;;11.40;1.00;;;;;;5100244;28;20127;-60
2023/02/28 11:26:48;;;;;;;14.18;12.32;;;11.30;1.00;;;;;;5080904;28;20032;-60
2023/02/28 11:29:34;;;;;;;15.45;11.77;;;11.50;1.00;;;;;;5112925;28;20035;-60
2023/02/28 11:38:44;;;;;;;15.70;12.18;;;11.40;1.00;;;;;;5103965;28;20148;-60
2023/02/28 11:41:28;;;;;;;15.48;12.40;;;11.40;1.00;;;;;;5093311;28;20114;-60
2023/02/28 11:44:11;;;;;;;14.27;11.73;;;11.50;1.00;;;;;;5114660;28;20035;-61
2023/02/28 11:47:06;;;;;;;15.93;13.13;;;11.40;1.00;;;;;;5116680;28;20016;-60
2023/02/28 11:49:31;;;;;;;14.82;13.02;;;11.40;1.00;;;;;;5094956;28;20032;-60
2023/02/28 11:52:06;;;;;;;16.45;13.38;;;11.50;1.00;;;;;;5116515;28;20022;-60
2023/02/28 11:54:56;;;;;;;16.52;12.63;;;11.50;1.00;;;;;;5116617;28;20023;-60
2023/02/28 11:57:45;;;;;;;17.42;13.23;;;11.50;1.00;;;;;;5107909;28;20044;-60
2023/02/28 12:00:16;;;;;;;16.10;13.13;;;11.70;1.00;;;;;;5115588;28;20044;-61
2023/02/28 12:03:00;;;;;;;16.00;12.88;;;11.60;1.00;;;;;;5116345;28;20115;-61
2023/02/28 12:05:39;;;;;;;16.58;13.00;;;11.70;1.00;;;;;;5084042;28;20041;-61
2023/02/28 12:08:07;;;;;;;15.95;13.05;;;11.80;1.00;;;;;;5116441;28;20031;-60
2023/02/28 12:11:05;;;;;;;16.20;13.35;;;11.90;1.00;;;;;;5116533;28;20031;-60
2023/02/28 12:14:01;;;;;;;17.92;13.80;;;11.70;1.00;;;;;;5116096;28;20020;-61
2023/02/28 12:16:45;;;;;;;15.68;12.98;;;11.70;1.00;;;;;;5108457;28;20101;-59
2023/02/28 12:19:31;;;;;;;16.35;13.88;;;11.70;1.00;;;;;;5085350;28;20027;-60
2023/02/28 12:22:27;;;;;;;17.90;13.48;;;11.70;1.00;;;;;;5116025;28;20031;-60
2023/02/28 12:25:18;;;;;;;16.20;13.90;;;11.80;1.00;;;;;;5097844;28;20042;-60
2023/02/28 12:27:46;;;;;;;17.92;14.20;;;12.00;1.00;;;;;;5103826;28;20110;-59
2023/02/28 12:30:29;;;;;;;17.27;14.35;;;12.20;1.00;;;;;;5116258;28;20412;-61
2023/02/28 12:33:06;;;;;;;17.08;13.38;;;12.10;1.00;;;;;;5115852;28;20038;-60
2023/02/28 12:35:40;;;;;;;18.23;14.02;;;12.00;1.00;;;;;;5116337;28;20031;-60
2023/02/28 12:38:17;;;;;;;20.73;14.68;;;11.80;1.00;;;;;;5116377;28;20369;-60
2023/02/28 12:41:07;;;;;;;20.92;14.60;;;11.90;1.00;;;;;;5115948;28;20422;-59
2023/02/28 12:43:38;;;;;;;17.95;14.52;;;11.90;1.00;;;;;;5113040;28;20035;-60
2023/02/28 12:46:36;;;;;;;18.17;14.82;;;11.90;1.00;;;;;;5115586;28;20008;-60
2023/02/28 12:49:12;;;;;;;17.30;14.48;;;12.10;1.00;;;;;;5096659;28;20485;-60
2023/02/28 12:51:38;;;;;;;20.02;15.85;;;12.10;1.00;;;;;;5115002;28;20107;-60
2023/02/28 12:54:04;;;;;;;20.27;16.20;;;12.30;1.00;;;;;;5105725;28;20137;-60
2023/02/28 12:57:03;;;;;;;17.42;15.02;;;12.60;1.00;;;;;;5113284;28;20039;-59
2023/02/28 12:59:55;;;;;;;19.17;15.85;;;12.70;1.00;;;;;;5108145;28;20044;-57
2023/02/28 13:02:24;;;;;;;19.80;15.63;;;12.80;1.00;;;;;;5103651;28;20027;-57
2023/02/28 13:05:03;;;;;;;19.67;15.63;;;12.80;1.00;;;;;;5114780;28;20049;-57
2023/02/28 13:08:05;;;;;;;17.33;14.60;;;12.60;1.00;;;;;;5105960;28;20039;-58
2023/02/28 13:10:54;;;;;;;18.50;16.20;;;12.50;1.00;;;;;;5100716;28;20027;-59
2023/02/28 13:13:27;;;;;;;18.45;15.40;;;12.40;1.00;;;;;;5101062;28;20136;-59
2023/02/28 13:16:10;;;;;;;20.48;14.63;;;12.50;1.00;;;;;;5115141;28;20103;-59
2023/02/28 13:18:46;;;;;;;20.00;14.90;;;12.60;1.00;;;;;;5114951;28;20036;-60
2023/02/28 13:21:28;;;;;;;18.08;14.45;;;12.60;1.00;;;;;;5094788;28;20557;-59
2023/02/28 13:23:58;;;;;;;20.40;15.45;;;12.60;1.00;;;;;;5112763;28;20046;-59
2023/02/28 13:26:49;;;;;;;18.98;14.90;;;12.50;1.00;;;;;;5096986;28;20397;-58
2023/02/28 13:29:18;;;;;;;16.50;14.20;;;12.30;1.00;;;;;;5083523;28;20028;-58
2023/02/28 13:32:05;;;;;;;17.70;14.60;;;12.20;1.00;;;;;;5096143;28;20080;-57
2023/02/28 13:34:33;;;;;;;16.83;15.02;;;12.30;1.00;;;;;;5102145;28;20081;-58
2023/02/28 13:37:21;;;;;;;17.85;15.02;;;12.20;1.00;;;;;;5114520;28;20065;-57
2023/02/28 13:40:06;;;;;;;18.50;14.52;;;12.20;1.00;;;;;;5095052;28;20024;-57
2023/02/28 13:42:44;;;;;;;;;;;12.20;1.00;;;;;;5108850;28;20024;-58